Time;durP1;ratioP1;P1;durP2;ratioP2;P2;SDS_P1;SDS_P2;PMS_P1;PMS_P2;Temp;Humidity;BMP_temperature;BMP_pressure;BME280_temperature;BME280_humidity;BME280_pressure;Samples;Min_cycle;Max_cycle;Signal;HPM_P1;HPM_P2
2022/08/19 00:01:57;;;;;;;17.40;14.73;;;16.90;99.90;;;-144.05;79.97;125687.94;4919891;29;20023;-89
2022/08/19 00:04:34;;;;;;;19.38;15.52;;;16.90;99.90;;;-144.05;80.05;125687.94;4920299;29;20059;-88
2022/08/19 00:07:00;;;;;;;15.75;13.27;;;16.90;99.90;;;-144.05;80.05;125687.94;4937739;29;20027;-86
2022/08/19 00:09:28;;;;;;;16.15;14.30;;;16.90;99.90;;;-144.05;80.34;125687.94;4920656;29;20036;-85
2022/08/19 00:11:57;;;;;;;20.38;14.55;;;16.90;99.90;;;-144.05;80.79;125687.94;4937785;29;20712;-89
2022/08/19 00:14:31;;;;;;;17.88;13.82;;;16.90;99.90;;;-144.05;80.62;125687.94;4935678;29;20122;-89
2022/08/19 00:16:57;;;;;;;16.20;14.18;;;16.90;99.90;;;-144.05;80.64;125687.94;4956812;29;20023;-86
2022/08/19 00:19:24;;;;;;;17.17;14.65;;;16.90;99.90;;;-144.05;80.50;125687.94;4957336;29;20058;-89
2022/08/19 00:23:27;;;;;;;13.98;11.55;;;16.80;99.90;;;-144.05;80.66;125687.94;4498877;29;18922383;-91
2022/08/19 00:29:54;;;;;;;18.52;14.95;;;16.80;99.90;;;-144.05;80.93;125687.94;4957001;29;20046;-86
2022/08/19 00:32:20;;;;;;;16.98;12.85;;;16.70;99.90;;;-144.05;80.95;125687.94;4939528;29;20046;-86
2022/08/19 00:34:46;;;;;;;15.70;13.40;;;16.80;99.90;;;-144.05;80.99;125687.94;4939588;29;20036;-87
2022/08/19 00:37:12;;;;;;;20.05;14.45;;;16.60;99.90;;;-144.05;81.30;125687.94;4956695;29;20027;-88
2022/08/19 00:39:38;;;;;;;16.58;14.38;;;16.70;99.90;;;-144.05;81.16;125687.94;4939419;29;20059;-88
2022/08/19 00:42:06;;;;;;;17.85;13.75;;;16.60;99.90;;;-144.05;81.30;125687.94;4938994;29;20555;-88
2022/08/19 00:44:32;;;;;;;16.05;13.38;;;16.60;99.90;;;-144.05;81.31;125687.94;4956683;29;20408;-88
2022/08/19 00:46:59;;;;;;;19.33;14.57;;;16.50;99.90;;;-144.05;81.41;125687.94;4939174;29;20039;-88
2022/08/19 00:49:40;;;;;;;18.45;15.40;;;16.50;99.90;;;-144.05;81.67;125687.94;4939264;29;20031;-90
2022/08/19 00:52:24;;;;;;;19.38;14.13;;;16.50;99.90;;;-144.05;81.61;125687.94;4939868;29;20428;-88
2022/08/19 00:54:53;;;;;;;18.58;14.05;;;16.50;99.90;;;-144.05;81.70;125687.94;4939808;29;20117;-90
2022/08/19 00:57:30;;;;;;;18.95;15.52;;;16.40;99.90;;;-144.05;82.03;125687.94;4939341;29;20058;-89
2022/08/19 01:00:01;;;;;;;19.17;14.27;;;16.40;99.90;;;-144.05;82.05;125687.94;4956592;29;20027;-89
2022/08/19 01:02:29;;;;;;;17.90;15.10;;;16.40;99.90;;;-144.05;82.01;125687.94;4955630;29;20453;-90
2022/08/19 01:04:55;;;;;;;18.42;14.98;;;16.40;99.90;;;-144.05;82.26;125687.94;4959121;28;20045;-89
2022/08/19 01:07:21;;;;;;;17.25;15.00;;;16.40;99.90;;;-144.05;82.27;125687.94;4961260;29;20041;-88
2022/08/19 01:09:47;;;;;;;20.23;15.80;;;16.40;99.90;;;-144.05;82.42;125687.94;4942812;29;20145;-88
2022/08/19 01:12:15;;;;;;;18.15;14.52;;;16.40;99.90;;;-144.05;82.29;125687.94;4942780;29;20038;-88
2022/08/19 01:14:41;;;;;;;17.02;15.07;;;16.40;99.90;;;-144.05;82.58;125687.94;4942567;29;20036;-87
2022/08/19 01:17:12;;;;;;;17.52;14.55;;;16.30;99.90;;;-144.05;82.41;125687.94;4923261;29;20051;-87
2022/08/19 01:19:42;;;;;;;18.92;13.93;;;16.30;99.90;;;-144.05;82.53;125687.94;4922502;29;20493;-88
2022/08/19 01:22:21;;;;;;;19.80;15.52;;;16.30;99.90;;;-144.05;82.67;125687.94;4926104;29;20039;-88
2022/08/19 01:24:47;;;;;;;19.90;14.98;;;16.30;99.90;;;-144.05;83.07;125687.94;4946980;29;20035;-90
2022/08/19 01:27:13;;;;;;;16.83;14.32;;;16.30;99.90;;;-144.05;83.03;125687.94;4942699;29;20095;-87
2022/08/19 01:29:44;;;;;;;17.83;14.10;;;16.30;99.90;;;-144.05;83.06;125687.94;4925096;29;20031;-88
2022/08/19 01:32:16;;;;;;;20.30;15.25;;;16.20;99.90;;;-144.05;82.94;125687.94;4925145;29;20028;-88
2022/08/19 01:34:46;;;;;;;22.48;16.80;;;16.20;99.90;;;-144.05;83.11;125687.94;4942570;29;20431;-90
2022/08/19 01:37:23;;;;;;;18.63;15.45;;;16.20;99.90;;;-144.05;83.19;125687.94;4925696;29;20038;-90
2022/08/19 01:39:50;;;;;;;21.73;15.75;;;16.10;99.90;;;-144.05;83.16;125687.94;4944113;29;20024;-88
2022/08/19 01:42:15;;;;;;;19.73;15.85;;;16.10;99.90;;;-144.05;83.40;125687.94;4944646;29;20074;-88
2022/08/19 01:44:41;;;;;;;19.52;15.63;;;16.10;99.90;;;-144.05;83.46;125687.94;4943052;29;20028;-87
2022/08/19 01:47:09;;;;;;;18.15;14.50;;;16.00;99.90;;;-144.05;83.42;125687.94;4924990;29;20489;-85
2022/08/19 01:49:37;;;;;;;18.20;15.10;;;16.00;99.90;;;-144.05;83.76;125687.94;4940414;29;20132;-88
2022/08/19 01:52:05;;;;;;;19.73;15.45;;;16.00;99.90;;;-144.05;83.61;125687.94;4940237;29;20032;-88
2022/08/19 01:54:33;;;;;;;14.95;13.35;;;16.00;99.90;;;-144.05;83.72;125687.94;4939452;29;20035;-87
2022/08/19 01:57:11;;;;;;;18.05;15.57;;;16.00;99.90;;;-144.05;83.97;125687.94;4922307;29;20032;-88
2022/08/19 01:59:37;;;;;;;18.23;14.32;;;16.00;99.90;;;-144.05;83.82;125687.94;4921860;29;20114;-89
2022/08/19 02:02:08;;;;;;;16.48;14.65;;;15.90;99.90;;;-144.05;84.03;125687.94;4922325;29;20099;-88
2022/08/19 02:04:35;;;;;;;17.08;13.38;;;15.90;99.90;;;-144.05;84.01;125687.94;4922167;29;20066;-85
2022/08/19 02:07:01;;;;;;;18.92;13.93;;;15.90;99.90;;;-144.05;84.19;125687.94;4939001;29;20087;-89
2022/08/19 02:09:27;;;;;;;16.95;14.50;;;15.90;99.90;;;-144.05;84.23;125687.94;4921854;29;20063;-88
2022/08/19 02:11:53;;;;;;;20.30;15.30;;;15.90;99.90;;;-144.05;84.40;125687.94;4938914;29;20040;-87
2022/08/19 02:14:19;;;;;;;18.13;14.95;;;15.80;99.90;;;-144.05;84.39;125687.94;4952915;29;20109;-86
2022/08/19 02:16:45;;;;;;;20.27;14.50;;;15.90;99.90;;;-144.05;84.43;125687.94;4957321;28;20118;-88
2022/08/19 02:19:11;;;;;;;18.27;13.48;;;15.80;99.90;;;-144.05;84.55;125687.94;4940928;29;20034;-87
2022/08/19 02:21:37;;;;;;;17.08;13.88;;;15.80;99.90;;;-144.05;84.31;125687.94;4958265;29;20034;-86
2022/08/19 02:24:04;;;;;;;16.05;13.30;;;15.80;99.90;;;-144.05;84.28;125687.94;4958054;29;20039;-87
2022/08/19 02:26:31;;;;;;;15.30;12.57;;;15.70;99.90;;;-144.05;84.46;125687.94;4957622;29;20042;-90
2022/08/19 02:28:57;;;;;;;15.50;12.88;;;15.70;99.90;;;-144.05;84.31;125687.94;4958033;29;20046;-88
2022/08/19 02:31:25;;;;;;;16.33;13.52;;;15.70;99.90;;;-144.05;84.39;125687.94;4957715;29;20032;-88
2022/08/19 02:33:52;;;;;;;15.02;13.40;;;15.70;99.90;;;-144.05;84.48;125687.94;4957342;29;20023;-85
2022/08/19 02:36:18;;;;;;;14.65;13.07;;;15.60;99.90;;;-144.05;84.53;125687.94;4940506;29;20366;-86
2022/08/19 02:38:45;;;;;;;16.45;14.43;;;15.60;99.90;;;-144.05;84.57;125687.94;4957471;29;20102;-85
2022/08/19 02:41:24;;;;;;;17.42;14.70;;;15.70;99.90;;;-144.05;84.86;125687.94;4957355;29;20114;-89
2022/08/19 02:43:50;;;;;;;18.02;13.50;;;15.70;99.90;;;-144.05;84.87;125687.94;4940426;29;20031;-88
2022/08/19 02:46:30;;;;;;;17.20;13.88;;;15.80;99.90;;;-144.05;84.66;125687.94;4957428;29;20485;-86
2022/08/19 02:49:02;;;;;;;17.70;14.93;;;15.80;99.90;;;-144.05;84.62;125687.94;4940030;29;20133;-88
2022/08/19 02:51:38;;;;;;;21.25;16.67;;;15.80;99.90;;;-144.05;84.60;125687.94;4939725;29;20039;-88
2022/08/19 02:54:07;;;;;;;;;;;15.80;99.90;;;-144.05;84.87;125687.94;4940408;29;20038;-89
2022/08/19 02:56:38;;;;;;;17.85;13.70;;;15.80;99.90;;;-144.05;84.58;125687.94;4956874;29;19910;-89
2022/08/19 02:59:09;;;;;;;16.92;13.45;;;15.80;99.90;;;-144.05;84.70;125687.94;4940289;29;20035;-88
2022/08/19 03:01:36;;;;;;;17.88;15.13;;;15.70;99.90;;;-144.05;85.01;125687.94;4957081;29;20461;-88
2022/08/19 03:04:09;;;;;;;18.98;15.65;;;15.70;99.90;;;-144.05;85.24;125687.94;4939939;29;20130;-87
2022/08/19 03:06:46;;;;;;;21.35;14.63;;;15.70;99.90;;;-144.05;85.06;125687.94;4940277;29;20034;-87
2022/08/19 03:09:14;;;;;;;19.52;15.40;;;15.70;99.90;;;-144.05;85.46;125687.94;4940240;29;20031;-87
2022/08/19 03:11:40;;;;;;;18.15;14.85;;;15.80;99.90;;;-144.05;85.52;125687.94;4939883;29;20481;-88
2022/08/19 03:14:09;;;;;;;16.30;13.93;;;15.70;99.90;;;-144.05;85.39;125687.94;4939891;29;20058;-89
2022/08/19 03:16:51;;;;;;;18.92;14.80;;;15.70;99.90;;;-144.05;85.50;125687.94;4940226;29;20039;-86
2022/08/19 03:19:23;;;;;;;19.23;15.20;;;15.70;99.90;;;-144.05;85.66;125687.94;4939877;29;20046;-86
2022/08/19 03:21:51;;;;;;;18.73;14.15;;;15.70;99.90;;;-144.05;85.41;125687.94;4956384;29;20050;-87
2022/08/19 03:24:19;;;;;;;18.65;15.50;;;15.70;99.90;;;-144.05;85.70;125687.94;4956433;29;20086;-87
2022/08/19 03:26:52;;;;;;;20.13;15.60;;;15.70;99.90;;;-144.05;85.89;125687.94;4939636;29;20399;-87
2022/08/19 03:29:19;;;;;;;19.30;15.02;;;15.70;99.90;;;-144.05;86.02;125687.94;4944608;29;20098;-84
2022/08/19 03:31:45;;;;;;;21.08;15.63;;;15.70;99.90;;;-144.05;86.06;125687.94;4953516;28;20023;-88
2022/08/19 03:34:18;;;;;;;17.90;13.77;;;15.80;99.90;;;-144.05;86.10;125687.94;4956422;29;20027;-88
2022/08/19 03:36:45;;;;;;;15.07;12.45;;;15.70;99.90;;;-144.05;86.10;125687.94;4939527;29;20038;-87
2022/08/19 03:39:11;;;;;;;16.95;14.63;;;15.70;99.90;;;-144.05;86.08;125687.94;4956609;29;20031;-89
2022/08/19 03:41:42;;;;;;;15.43;12.95;;;15.70;99.90;;;-144.05;86.40;125687.94;4955038;29;20031;-88
2022/08/19 03:44:08;;;;;;;16.35;13.10;;;15.70;99.90;;;-144.05;86.29;125687.94;4956260;29;20085;-87
2022/08/19 03:46:36;;;;;;;18.42;14.43;;;15.70;99.90;;;-144.05;86.29;125687.94;4939077;29;20472;-88
2022/08/19 03:49:07;;;;;;;17.75;14.40;;;15.70;99.90;;;-144.05;86.33;125687.94;4956928;29;20035;-88
2022/08/19 03:51:38;;;;;;;17.67;14.77;;;15.70;99.90;;;-144.05;86.27;125687.94;4939675;29;20035;-88
2022/08/19 03:54:13;;;;;;;19.13;14.35;;;15.70;99.90;;;-144.05;86.35;125687.94;4956672;29;20186;-89
2022/08/19 03:56:43;;;;;;;20.20;13.95;;;15.70;99.90;;;-144.05;86.20;125687.94;4956043;29;20019;-88
2022/08/19 03:59:20;;;;;;;18.48;14.35;;;15.70;99.90;;;-144.05;86.13;125687.94;4956442;29;20041;-88
2022/08/19 04:01:47;;;;;;;20.52;13.88;;;15.60;99.90;;;-144.05;86.35;125687.94;4956772;29;20039;-90
2022/08/19 04:04:13;;;;;;;18.85;14.60;;;15.60;99.90;;;-144.05;86.24;125687.94;4956342;29;20038;-87
2022/08/19 04:06:40;;;;;;;19.48;14.20;;;15.50;99.90;;;-144.05;86.57;125687.94;4956873;29;20035;-87
2022/08/19 04:09:11;;;;;;;15.88;13.93;;;15.60;99.90;;;-144.05;86.39;125687.94;4956900;29;20518;-87
2022/08/19 04:11:59;;;;;;;20.17;14.35;;;15.50;99.90;;;-144.05;86.57;125687.94;4957642;29;20110;-87
2022/08/19 04:14:30;;;;;;;21.58;15.77;;;15.50;99.90;;;-144.05;86.74;125687.94;4956739;29;20043;-89
2022/08/19 04:16:58;;;;;;;20.23;14.35;;;15.50;99.90;;;-144.05;86.62;125687.94;4957130;29;20023;-89
2022/08/19 04:19:26;;;;;;;19.25;14.73;;;15.50;99.90;;;-144.05;86.72;125687.94;4956385;29;20059;-88
2022/08/19 04:21:54;;;;;;;17.63;14.35;;;15.60;99.90;;;-144.05;86.78;125687.94;4939574;29;20032;-88
2022/08/19 04:24:22;;;;;;;21.67;15.82;;;15.50;99.90;;;-144.05;86.83;125687.94;4940791;29;20031;-87
2022/08/19 04:26:49;;;;;;;25.45;18.17;;;15.50;99.90;;;-144.05;87.00;125687.94;4939036;29;20034;-86
2022/08/19 04:29:26;;;;;;;23.42;17.48;;;15.60;99.90;;;-144.05;86.95;125687.94;4939843;29;20070;-87
2022/08/19 04:31:58;;;;;;;21.33;15.32;;;15.60;99.90;;;-144.05;86.70;125687.94;4939532;29;20023;-86
2022/08/19 04:34:29;;;;;;;20.40;15.77;;;15.60;99.90;;;-144.05;86.62;125687.94;4940212;29;20043;-86
2022/08/19 04:36:58;;;;;;;20.38;15.75;;;15.60;99.90;;;-144.05;86.74;125687.94;4956984;29;20032;-86
2022/08/19 04:45:20;;;;;;;18.67;15.02;;;15.60;99.90;;;-144.05;86.49;125687.94;4961084;29;20082;-87
2022/08/19 04:47:46;;;;;;;26.05;16.30;;;15.60;99.90;;;-144.05;86.62;125687.94;4943730;29;20039;-89
2022/08/19 04:50:15;;;;;;;19.95;16.00;;;15.60;99.90;;;-144.05;86.75;125687.94;4961037;29;20035;-86
2022/08/19 04:52:42;;;;;;;23.05;17.58;;;15.60;99.90;;;-144.05;86.58;125687.94;4944024;29;20405;-91
2022/08/19 04:55:10;;;;;;;23.95;18.02;;;15.70;99.90;;;-144.05;86.67;125687.94;4944334;29;20039;-88
2022/08/19 04:57:39;;;;;;;27.27;18.60;;;15.80;99.90;;;-144.05;86.66;125687.94;4943772;29;20027;-88
2022/08/19 05:00:11;;;;;;;26.25;18.25;;;15.80;99.90;;;-144.05;86.69;125687.94;4945412;29;20122;-90
2022/08/19 05:02:38;;;;;;;23.88;17.25;;;15.90;99.90;;;-144.05;86.14;125687.94;4945205;29;20058;-89
2022/08/19 05:05:06;;;;;;;21.83;17.38;;;16.00;99.90;;;-144.05;86.19;125687.94;4946475;29;20031;-89
2022/08/19 05:07:32;;;;;;;25.40;17.75;;;16.00;99.90;;;-144.05;86.02;125687.94;4964721;29;20031;-87
2022/08/19 05:09:58;;;;;;;20.88;16.75;;;16.10;99.90;;;-144.05;85.74;125687.94;4950013;29;20050;-87
2022/08/19 05:12:24;;;;;;;24.13;16.40;;;16.20;99.90;;;-144.05;85.56;125687.94;4955810;29;20035;-87
2022/08/19 05:14:51;;;;;;;19.75;15.90;;;16.20;99.90;;;-144.05;85.36;125687.94;4936890;29;20130;-89
2022/08/19 05:17:17;;;;;;;18.88;15.68;;;16.20;99.90;;;-144.05;85.49;125687.94;4927591;29;20521;-88
2022/08/19 05:22:37;;;;;;;24.02;16.77;;;16.40;99.90;;;-144.05;85.07;125687.94;4942780;29;20075;-87
2022/08/19 05:25:14;;;;;;;21.45;15.05;;;16.50;99.90;;;-144.05;84.97;125687.94;4926272;29;20036;-88
2022/08/19 05:27:42;;;;;;;22.73;17.85;;;16.60;99.90;;;-144.05;84.66;125687.94;4943068;29;20039;-89
2022/08/19 05:30:11;;;;;;;21.23;15.65;;;16.70;99.90;;;-144.05;84.36;125687.94;4926692;29;20035;-89
2022/08/19 05:32:39;;;;;;;20.10;14.13;;;16.70;99.90;;;-144.05;84.01;125687.94;4926964;29;20062;-85
2022/08/19 05:35:06;;;;;;;20.27;15.77;;;16.80;99.90;;;-144.05;84.07;125687.94;4923971;29;20052;-85
2022/08/19 05:37:34;;;;;;;20.30;15.48;;;16.90;99.90;;;-144.05;83.93;125687.94;4923884;29;20114;-90
2022/08/19 05:39:59;;;;;;;16.95;14.27;;;17.10;99.90;;;-144.05;83.82;125687.94;4940058;29;20047;-86
2022/08/19 05:42:26;;;;;;;20.85;16.17;;;17.20;99.90;;;-144.05;83.27;125687.94;4934593;29;20047;-86
2022/08/19 05:44:52;;;;;;;21.13;15.27;;;17.30;99.90;;;-144.05;82.79;125687.94;4923985;29;20470;-88
2022/08/19 05:47:19;;;;;;;21.83;14.68;;;17.50;99.90;;;-144.05;82.32;125687.94;4924244;29;20103;-85
2022/08/19 05:49:49;;;;;;;19.30;15.73;;;17.60;99.90;;;-144.05;81.86;125687.94;4923034;29;20028;-87
2022/08/19 05:52:16;;;;;;;19.88;15.73;;;17.70;99.90;;;-144.05;81.30;125687.94;4921546;29;20118;-87
2022/08/19 05:54:42;;;;;;;21.85;14.85;;;17.80;99.90;;;-144.05;80.90;125687.94;4923115;29;20267;-86
2022/08/19 05:57:10;;;;;;;18.30;13.90;;;17.90;99.90;;;-144.05;79.97;125687.94;4922789;29;20035;-85
2022/08/19 05:59:36;;;;;;;21.98;16.40;;;17.90;99.90;;;-144.05;79.37;125687.94;4923859;29;20020;-87
2022/08/19 06:02:06;;;;;;;24.00;17.10;;;18.00;99.90;;;-144.05;78.09;125687.94;4923163;29;20036;-87
2022/08/19 06:04:32;;;;;;;26.10;17.48;;;18.10;99.90;;;-144.05;77.76;125687.94;4923623;29;20070;-87
2022/08/19 06:06:58;;;;;;;28.23;19.20;;;18.20;99.90;;;-144.05;76.62;125687.94;4922864;29;20065;-86
2022/08/19 06:09:25;;;;;;;24.58;17.98;;;18.40;99.90;;;-144.05;75.39;125687.94;4922705;29;20036;-88
2022/08/19 06:11:59;;;;;;;20.73;15.98;;;18.60;99.90;;;-144.05;74.86;125687.94;4923325;29;20036;-86
2022/08/19 06:14:34;;;;;;;19.60;15.40;;;18.80;99.90;;;-144.05;74.10;125687.94;4938551;29;20070;-88
2022/08/19 06:17:01;;;;;;;21.13;16.25;;;19.00;99.90;;;-144.05;73.21;125687.94;4959058;29;20028;-88
2022/08/19 06:19:30;;;;;;;24.52;16.80;;;19.10;99.90;;;-144.05;72.19;125687.94;4941991;29;20420;-88
2022/08/19 06:21:59;;;;;;;19.05;16.17;;;19.40;99.90;;;-144.05;70.98;125687.94;4941869;29;20225;-88
2022/08/19 06:24:29;;;;;;;20.50;15.70;;;19.60;99.90;;;-144.05;70.36;125687.94;4942497;29;20031;-87
2022/08/19 06:26:58;;;;;;;21.17;15.85;;;19.80;99.90;;;-144.05;69.56;125687.94;4942702;29;20039;-85
2022/08/19 06:29:28;;;;;;;23.40;16.77;;;20.10;99.90;;;-144.05;68.68;125687.94;4942729;29;20493;-87
2022/08/19 06:31:58;;;;;;;18.75;14.55;;;20.40;99.90;;;-144.05;67.59;125687.94;4943295;29;20031;-87
2022/08/19 06:34:27;;;;;;;18.20;13.50;;;20.70;99.90;;;-144.05;66.99;125687.94;4943884;29;20028;-87
2022/08/19 06:36:57;;;;;;;18.27;12.50;;;20.80;99.90;;;-144.05;67.40;125687.94;4959923;29;20087;-87
2022/08/19 06:39:32;;;;;;;20.17;13.10;;;20.90;99.90;;;-144.05;67.70;125687.94;4960282;29;20023;-87
2022/08/19 06:42:06;;;;;;;16.88;12.20;;;20.80;99.90;;;-144.05;67.79;125687.94;4942226;29;20118;-88
2022/08/19 06:44:37;;;;;;;17.88;11.75;;;20.60;99.90;;;-144.05;68.31;125687.94;4942506;29;20130;-88
2022/08/19 06:47:08;;;;;;;17.90;11.98;;;20.50;99.90;;;-144.05;68.79;125687.94;4942867;29;20098;-86
2022/08/19 06:49:35;;;;;;;18.15;13.95;;;20.50;99.90;;;-144.05;68.73;125687.94;4942327;29;20164;-87
2022/08/19 06:52:04;;;;;;;20.63;14.85;;;20.50;99.90;;;-144.05;68.69;125687.94;4942565;29;20074;-88
2022/08/19 06:54:30;;;;;;;21.70;14.60;;;20.50;99.90;;;-144.05;68.71;125687.94;4959417;29;20393;-87
2022/08/19 06:57:03;;;;;;;21.20;14.65;;;20.70;99.90;;;-144.05;67.58;125687.94;4941829;29;20042;-86
2022/08/19 06:59:32;;;;;;;21.73;14.75;;;20.90;99.90;;;-144.05;67.05;125687.94;4941989;29;20027;-88
2022/08/19 07:02:06;;;;;;;20.05;14.60;;;21.10;99.90;;;-144.05;66.24;125687.94;4942029;29;20086;-87
2022/08/19 07:04:35;;;;;;;20.90;15.88;;;21.30;99.90;;;-144.05;65.45;125687.94;4942090;29;20405;-87
2022/08/19 07:07:14;;;;;;;25.70;19.15;;;21.30;99.90;;;-144.05;64.85;125687.94;4959728;29;20063;-87
2022/08/19 07:09:44;;;;;;;26.27;18.05;;;21.40;99.90;;;-144.05;64.89;125687.94;4941542;29;20576;-87
2022/08/19 07:12:16;;;;;;;19.40;14.82;;;21.50;99.90;;;-144.05;64.67;125687.94;4941512;29;20050;-88
2022/08/19 07:14:45;;;;;;;32.33;21.52;;;21.60;99.90;;;-144.05;63.24;125687.94;4941103;29;20024;-86
2022/08/19 07:17:12;;;;;;;22.85;17.50;;;21.70;99.90;;;-144.05;63.14;125687.94;4941519;29;20062;-86
2022/08/19 07:19:40;;;;;;;22.23;16.98;;;21.80;99.90;;;-144.05;63.40;125687.94;4940983;29;20058;-88
2022/08/19 07:22:09;;;;;;;26.70;18.80;;;21.80;99.90;;;-144.05;62.69;125687.94;4958005;29;20039;-86
2022/08/19 07:24:37;;;;;;;22.90;15.73;;;21.80;99.90;;;-144.05;62.56;125687.94;4941507;29;20054;-88
2022/08/19 07:27:06;;;;;;;22.58;15.55;;;22.00;99.90;;;-144.05;61.44;125687.94;4940997;29;20038;-88
2022/08/19 07:29:36;;;;;;;23.65;16.25;;;22.10;99.90;;;-144.05;61.28;125687.94;4940976;29;20039;-87
2022/08/19 07:32:05;;;;;;;20.50;15.68;;;22.30;99.90;;;-144.05;61.22;125687.94;4941438;29;20094;-88
2022/08/19 07:34:36;;;;;;;23.33;17.95;;;22.40;99.90;;;-144.05;60.39;125687.94;4941261;29;20042;-87
2022/08/19 07:37:05;;;;;;;20.73;15.05;;;22.40;99.90;;;-144.05;60.19;125687.94;4942218;29;20086;-89
2022/08/19 07:39:36;;;;;;;18.08;12.55;;;22.40;99.90;;;-144.05;60.51;125687.94;4943253;29;20122;-89
2022/08/19 07:42:09;;;;;;;21.35;14.88;;;22.50;99.90;;;-144.05;59.93;125687.94;4961685;29;20078;-87
2022/08/19 07:44:37;;;;;;;23.15;15.98;;;22.60;99.90;;;-144.05;59.26;125687.94;4941671;29;20121;-85
2022/08/19 07:47:04;;;;;;;19.80;14.45;;;22.70;99.90;;;-144.05;59.49;125687.94;4945439;29;20031;-85
2022/08/19 07:49:31;;;;;;;21.15;15.38;;;22.70;99.90;;;-144.05;58.67;125687.94;4957795;29;20039;-87
2022/08/19 07:52:07;;;;;;;18.35;13.02;;;22.80;99.90;;;-144.05;58.63;125687.94;4943284;29;20046;-87
2022/08/19 07:54:38;;;;;;;20.65;14.80;;;22.90;99.90;;;-144.05;58.94;125687.94;4958000;29;20401;-86
2022/08/19 07:57:06;;;;;;;20.45;14.23;;;22.90;99.90;;;-144.05;58.71;125687.94;4939987;29;20063;-87
2022/08/19 07:59:34;;;;;;;19.38;12.77;;;22.90;99.90;;;-144.05;58.90;125687.94;4957334;29;20473;-87
2022/08/19 08:02:01;;;;;;;20.40;14.57;;;22.90;99.90;;;-144.05;59.15;125687.94;4940457;29;20031;-88
2022/08/19 08:10:01;;;;;;;17.65;13.02;;;23.00;99.90;;;-144.05;58.66;125687.94;4957935;29;20461;-87
2022/08/19 08:12:42;;;;;;;19.95;13.73;;;23.00;99.90;;;-144.05;58.01;125687.94;4941136;29;20129;-88
2022/08/19 08:15:18;;;;;;;16.70;13.05;;;23.20;99.90;;;-144.05;57.06;125687.94;4940374;29;20039;-86
2022/08/19 08:17:45;;;;;;;15.75;11.77;;;23.50;99.90;;;-144.05;56.12;125687.94;4943039;29;20027;-84
2022/08/19 08:20:13;;;;;;;19.30;12.27;;;23.90;99.90;;;-144.05;55.16;125687.94;4943555;29;20023;-86
2022/08/19 08:25:31;;;;;;;15.77;11.23;;;24.30;99.90;;;-144.05;54.44;125687.94;4975097;29;20049;-87
2022/08/19 08:28:00;;;;;;;15.15;9.80;;;24.50;99.90;;;-144.05;53.30;125687.94;4957282;29;20121;-86
2022/08/19 08:30:28;;;;;;;12.05;10.27;;;24.90;99.90;;;-144.05;52.05;125687.94;4957869;29;20034;-87
2022/08/19 08:32:55;;;;;;;11.73;9.75;;;25.30;99.90;;;-144.05;50.36;125687.94;4957646;28;20023;-85
2022/08/19 08:35:24;;;;;;;12.70;8.95;;;25.50;99.90;;;-144.05;50.24;125687.94;4957820;29;20019;-88
2022/08/19 08:37:55;;;;;;;14.43;9.90;;;25.60;99.90;;;-144.05;49.55;125687.94;4958457;29;20019;-86
2022/08/19 08:40:50;;;;;;;12.05;10.48;;;25.90;99.90;;;-144.05;48.37;125687.94;4958319;29;20019;-89
2022/08/19 08:43:33;;;;;;;11.07;8.80;;;26.10;99.90;;;-144.05;47.15;125687.94;4962740;29;20027;-89
2022/08/19 08:46:30;;;;;;;11.05;9.10;;;26.50;99.90;;;-144.05;47.67;125687.94;4961676;29;20031;-88
2022/08/19 08:49:12;;;;;;;12.20;8.07;;;26.60;99.90;;;-144.05;46.83;125687.94;4961876;29;20023;-91
2022/08/19 08:51:52;;;;;;;9.65;7.05;;;26.80;99.90;;;-144.05;47.24;125687.94;4945154;29;20106;-89
2022/08/19 08:54:28;;;;;;;11.60;9.00;;;26.60;99.90;;;-144.05;46.80;125687.94;4947174;29;20072;-89
2022/08/19 08:56:54;;;;;;;;;;;26.50;99.90;;;-144.05;47.27;125687.94;4947860;29;20054;-90
2022/08/19 08:59:33;;;;;;;12.52;7.82;;;26.50;99.90;;;-144.05;47.12;125687.94;4947361;29;19942;-89
2022/08/19 09:02:00;;;;;;;10.18;7.95;;;26.80;99.90;;;-144.05;46.17;125687.94;4959616;29;20035;-89
2022/08/19 09:04:28;;;;;;;15.60;9.82;;;27.00;99.90;;;-144.05;45.67;125687.94;4960236;29;20508;-89
2022/08/19 09:07:21;;;;;;;13.00;10.30;;;27.00;99.90;;;-144.05;45.30;125687.94;4942571;29;20027;-89
2022/08/19 09:09:55;;;;;;;12.25;8.57;;;27.10;99.90;;;-144.05;44.83;125687.94;4960465;29;20055;-88
2022/08/19 09:13:10;;;;;;;9.00;7.15;;;27.20;99.90;;;-144.05;44.54;125687.94;4958545;29;20034;-88
2022/08/19 09:15:47;;;;;;;12.90;10.75;;;27.50;99.90;;;-144.05;43.10;125687.94;4941107;29;20028;-90
2022/08/19 09:18:16;;;;;;;14.27;8.82;;;27.90;99.90;;;-144.05;42.72;125687.94;4924127;29;20645;-88
2022/08/19 09:20:42;;;;;;;12.57;10.57;;;28.30;99.90;;;-144.05;41.39;125687.94;4938986;29;20031;-89
2022/08/19 09:23:10;;;;;;;10.15;8.65;;;28.50;99.90;;;-144.05;40.86;125687.94;4923141;29;20056;-87
2022/08/19 09:25:39;;;;;;;11.27;9.05;;;28.60;99.90;;;-144.05;41.17;125687.94;4941620;29;20036;-88
2022/08/19 09:28:07;;;;;;;14.38;9.68;;;28.10;99.90;;;-144.05;42.79;125687.94;4943900;29;20458;-89
2022/08/19 09:30:41;;;;;;;15.32;10.43;;;27.40;99.90;;;-144.05;43.65;125687.94;4942467;29;20031;-89
2022/08/19 09:33:07;;;;;;;15.85;12.23;;;26.80;99.90;;;-144.05;43.99;125687.94;4927437;29;20051;-90
2022/08/19 09:35:35;;;;;;;14.70;10.95;;;26.80;99.90;;;-144.05;42.44;125687.94;4944554;29;20523;-88
2022/08/19 09:38:01;;;;;;;13.40;10.48;;;27.20;99.90;;;-144.05;43.10;125687.94;4943969;29;20045;-87
2022/08/19 09:40:30;;;;;;;13.10;10.02;;;26.80;99.90;;;-144.05;42.81;125687.94;4945524;29;20028;-88
2022/08/19 09:42:56;;;;;;;16.27;11.30;;;27.00;99.90;;;-144.05;43.31;125687.94;4943313;29;20032;-88
2022/08/19 09:45:22;;;;;;;14.68;12.13;;;26.90;99.90;;;-144.05;42.41;125687.94;4945293;29;20046;-87
2022/08/19 09:47:53;;;;;;;11.95;10.30;;;26.70;99.90;;;-144.05;43.41;125687.94;4944901;29;20472;-88
2022/08/19 09:50:19;;;;;;;15.95;11.27;;;26.50;99.90;;;-144.05;42.34;125687.94;4928267;29;20035;-90
2022/08/19 09:52:46;;;;;;;11.63;9.40;;;27.00;99.90;;;-144.05;41.27;125687.94;4947359;29;20036;-88
2022/08/19 09:55:13;;;;;;;14.77;10.57;;;27.50;99.90;;;-144.05;40.77;125687.94;4927447;29;20173;-85
2022/08/19 09:57:39;;;;;;;14.98;13.38;;;27.80;99.90;;;-144.05;41.09;125687.94;4954945;29;20060;-87
2022/08/19 10:00:09;;;;;;;14.63;10.13;;;27.60;99.90;;;-144.05;41.23;125687.94;4954560;29;20028;-87
2022/08/19 10:02:36;;;;;;;13.82;10.90;;;28.00;99.90;;;-144.05;39.80;125687.94;4942536;29;20139;-87
2022/08/19 10:07:47;;;;;;;15.13;13.10;;;28.50;99.90;;;-144.05;39.82;125687.94;4953396;29;20055;-89
2022/08/19 10:10:13;;;;;;;19.83;14.73;;;28.10;99.90;;;-144.05;42.16;125687.94;4948761;29;20079;-89
2022/08/19 10:12:39;;;;;;;16.17;12.18;;;27.30;99.90;;;-144.05;43.87;125687.94;4926298;29;20040;-89
2022/08/19 10:15:06;;;;;;;18.52;11.60;;;26.70;99.90;;;-144.05;44.32;125687.94;4942220;29;20051;-92
2022/08/19 10:17:34;;;;;;;17.90;12.18;;;26.10;99.90;;;-144.05;44.94;125687.94;4940995;29;20028;-88
2022/08/19 10:20:03;;;;;;;12.15;10.65;;;25.60;99.90;;;-144.05;45.67;125687.94;4924686;29;20054;-88
2022/08/19 10:22:30;;;;;;;15.60;10.65;;;25.30;99.90;;;-144.05;46.40;125687.94;4940686;29;20087;-86
2022/08/19 10:24:56;;;;;;;11.57;9.40;;;25.20;99.90;;;-144.05;46.05;125687.94;4924656;29;20119;-87